LTAILTAY

Guest
Details From LTAI - Antalya
To LTAY - CARDAK
Flight Number -
Tags generated
Created
Modified
Stats Distance 75 nm / 138 km
Max Altitude 12,500 ft / 3,810 m
Waypoints 5
Social Downloads 0
Likes 0
Share VATSIM

Download

Looking for another format? Having issues loading an existing format? Contact us
Advertisement - Login to hide

Notes

Basic altitude profile: - Ascent Rate: 1500ft/min - Ascent Speed: 270kts - Cruise Altitude: 35000ft - Cruise Speed: 420kts - Descent Rate: 1500ft/min - Descent Speed: 220kts Options: - Use NATs: yes - Use PACOTS: no - Use low airways: yes - Use high airways: no

Route

LTAI BRONZ L854 SALDA LTAY

ID Type Via Altitude Latitude Longitude Leg Dist Tot Dist Heading (true) Name
O LTAI APT - 0 ft / 0 m 36.89960˚ 30.79751˚ - 0 nm - Antalya
BRONZ FIX - 9,300 ft / 2,835 m 37.26972˚ 30.34944˚ 30 nm 30 nm 316° / 316° -
KOZLU FIX L854 (AWY-LO) 10,500 ft / 3,200 m 37.49722˚ 30.07444˚ 18 nm 49 nm 316° / 316° -
SALDA FIX L854 (AWY-LO) 12,500 ft / 3,810 m 37.55528˚ 30.00000˚ 4 nm 54 nm 315° / 314° -
O LTAY APT - 0 ft / 0 m 37.78556˚ 29.70130˚ 19 nm 74 nm 314° / 314° CARDAK

Altitude Profile

Advertisement - Login to hide

LTAI

Details ICAO LTAI (AYT)
Name Antalya
Region Turkey
Timezone Europe/Istanbul (UTC+3.0)
Stats Elevation 177 ft / 54 m (AMSL)
Location 36.899598° 30.797507°
Runways 3
Magnetic Variation 5.071° E

METAR

LTAI 160120Z 36005KT 9999 SCT030 11/10 Q1021 NOSIG

Decode

TAF

Not found

Departure Runways

ID Width Length Bearing (true) Bearing (mag) Surface Threshold Offset Overrun Length
18C 148 ft / 45 m 11,137 ft / 3,394 m 186.26° 181.19° Concrete 0 ft / 0 m 197 ft / 60 m
18L 148 ft / 45 m 11,180 ft / 3,408 m 186.28° 181.21° Concrete 0 ft / 0 m 197 ft / 60 m
18R 148 ft / 45 m 9,789 ft / 2,984 m 186.25° 181.18° Asphalt 0 ft / 0 m 984 ft / 300 m
36C 148 ft / 45 m 11,137 ft / 3,394 m 6.25° 1.18° Concrete 0 ft / 0 m 197 ft / 60 m
36L 148 ft / 45 m 9,789 ft / 2,984 m 6.25° 1.18° Asphalt 0 ft / 0 m 984 ft / 300 m
36R 148 ft / 45 m 11,180 ft / 3,408 m 6.28° 1.21° Concrete 0 ft / 0 m 197 ft / 60 m

LTAY

Details ICAO LTAY (DNZ)
Name CARDAK
Region Turkey
Timezone Europe/Istanbul (UTC+3.0)
Stats Elevation 2,795 ft / 852 m (AMSL)
Location 37.785564° 29.701296°
Runways 1
Magnetic Variation 5.088° E

METAR

LTAY 160050Z 15008KT CAVOK 08/04 Q1020

Decode

TAF

Not found

Destination Runways

ID Width Length Bearing (true) Bearing (mag) Surface Threshold Offset Overrun Length
06 148 ft / 45 m 9,830 ft / 2,996 m 58.82° 53.73° Asphalt 0 ft / 0 m 480 ft / 146 m
24 148 ft / 45 m 9,830 ft / 2,996 m 238.84° 233.75° Asphalt 0 ft / 0 m 506 ft / 154 m

Approach Navaids

Runway Type Ident Frequency Range Bearing (true) Bearing (mag) Slope Elevation
24 Localiser ICRD 110.70 MHz 18 nm / 33 km 238.96° 233.87° - 2,806 ft / 855 m (AMSL)
24 Glidescope ICRD 110.70 MHz 10 nm / 19 km 238.83° 233.74° 3.00° 2,846 ft / 867 m (AMSL)

Popular Alternatives